Terminal Aerodrome Forecast
Issued by NWS Jackson, KY

Current Version | Previous Version | Text Only | Print | Product List | Glossary On
Versions: 1 2 3 4 5 6 7 8 9 10 11 12 13 14 15 16 17 18 19 20 21 22
000
FTUS43 KJKL 161432 AAB
TAFJKL
TAF AMD
KJKL 161432Z 1615/1712 00000KT 3/4SM BR BKN006
     FM161600 00000KT 6SM BR OVC008
     FM161800 00000KT P6SM OVC050
     FM162100 16003KT P6SM VCSH BKN090
     FM170800 19005KT 3SM SHRA OVC015=

USA.gov is the U.S. government's official web portal to all federal, state and local government web resources and services.